Time;durP1;ratioP1;P1;durP2;ratioP2;P2;SDS_P1;SDS_P2;PMS_P1;PMS_P2;Temp;Humidity;BMP_temperature;BMP_pressure;BME280_temperature;BME280_humidity;BME280_pressure;Samples;Min_cycle;Max_cycle;Signal;HPM_P1;HPM_P2
2020/12/05 00:01:50;;;;;;;1.50;1.40;;;4.00;99.90;;;;;;5000755;28;20387;-78
2020/12/05 00:04:16;;;;;;;1.20;1.10;;;3.70;99.90;;;;;;4999649;28;20881;-79
2020/12/05 00:06:41;;;;;;;1.33;1.20;;;3.30;99.90;;;;;;4992713;28;20378;-78
2020/12/05 00:09:07;;;;;;;1.80;1.40;;;3.70;99.90;;;;;;5005493;28;20778;-77
2020/12/05 00:11:32;;;;;;;1.40;1.00;;;5.00;99.90;;;;;;4994382;28;20393;-77
2020/12/05 00:13:58;;;;;;;0.90;0.60;;;3.10;99.90;;;;;;4999563;28;20414;-77
2020/12/05 00:16:24;;;;;;;1.50;0.80;;;5.80;99.90;;;;;;5001305;28;20424;-77
2020/12/05 00:18:54;;;;;;;0.80;0.60;;;5.80;99.90;;;;;;4991848;28;20486;-77
2020/12/05 00:21:20;;;;;;;0.98;0.68;;;3.10;99.90;;;;;;5004793;28;20382;-79
2020/12/05 00:23:46;;;;;;;0.60;0.60;;;3.00;99.90;;;;;;4997429;28;20378;-77
2020/12/05 00:26:19;;;;;;;1.00;0.60;;;3.10;99.90;;;;;;4997702;28;20997;-77
2020/12/05 00:28:46;;;;;;;0.50;0.50;;;3.20;99.90;;;;;;4989464;28;20457;-76
2020/12/05 00:31:12;;;;;;;0.70;0.50;;;3.10;99.90;;;;;;4999060;28;20415;-77
2020/12/05 00:33:38;;;;;;;0.82;0.70;;;3.80;99.90;;;;;;5006982;28;20385;-78
2020/12/05 00:36:04;;;;;;;0.60;0.50;;;3.10;99.90;;;;;;5009262;28;20796;-77
2020/12/05 00:38:29;;;;;;;0.97;0.60;;;5.30;99.90;;;;;;5008089;28;20448;-77
2020/12/05 00:40:56;;;;;;;1.00;0.80;;;5.10;99.90;;;;;;5009314;28;20869;-77
2020/12/05 00:43:21;;;;;;;0.80;0.60;;;3.60;99.90;;;;;;5009069;28;20466;-79
2020/12/05 00:45:48;;;;;;;0.85;0.80;;;5.60;99.90;;;;;;5009545;28;20833;-77
2020/12/05 00:48:14;;;;;;;0.60;0.60;;;3.90;99.90;;;;;;5008116;28;20389;-77
2020/12/05 00:50:40;;;;;;;0.70;0.60;;;2.90;99.90;;;;;;5008562;28;20459;-76
2020/12/05 00:53:05;;;;;;;0.40;0.30;;;2.80;99.90;;;;;;5011883;28;20384;-76
2020/12/05 00:55:31;;;;;;;0.50;0.30;;;3.00;99.90;;;;;;5012848;28;20416;-77
2020/12/05 00:57:57;;;;;;;0.50;0.40;;;5.40;99.90;;;;;;5013332;28;20392;-76
2020/12/05 01:00:22;;;;;;;0.50;0.30;;;4.20;99.90;;;;;;5013511;28;20511;-78
2020/12/05 01:02:48;;;;;;;1.20;0.50;;;3.20;99.90;;;;;;5013372;28;20389;-76
2020/12/05 01:05:14;;;;;;;0.50;0.50;;;3.10;99.90;;;;;;5013602;28;20436;-76
2020/12/05 01:07:40;;;;;;;0.50;0.40;;;2.80;99.90;;;;;;5012645;28;20480;-76
2020/12/05 01:10:06;;;;;;;1.05;0.50;;;2.50;99.90;;;;;;5013964;28;20929;-76
2020/12/05 01:12:32;;;;;;;0.60;0.40;;;4.00;99.90;;;;;;5012606;28;20838;-76
2020/12/05 01:15:01;;;;;;;0.73;0.55;;;3.10;99.90;;;;;;5012194;28;20500;-76
2020/12/05 01:17:28;;;;;;;0.50;0.40;;;3.70;99.90;;;;;;5010952;28;20495;-76
2020/12/05 01:19:56;;;;;;;0.45;0.40;;;4.40;99.90;;;;;;5013337;28;20419;-77
2020/12/05 01:22:24;;;;;;;0.70;0.50;;;3.40;99.90;;;;;;5013337;28;20423;-76
2020/12/05 01:24:51;;;;;;;0.50;0.40;;;2.80;99.90;;;;;;5013056;28;20476;-77
2020/12/05 01:27:17;;;;;;;1.50;0.47;;;3.80;99.90;;;;;;5013360;28;20401;-75
2020/12/05 01:29:43;;;;;;;0.77;0.50;;;3.70;99.90;;;;;;5012645;28;20389;-76
2020/12/05 01:32:09;;;;;;;0.60;0.50;;;5.20;99.90;;;;;;4995733;28;20394;-76
2020/12/05 01:34:35;;;;;;;0.60;0.50;;;2.60;99.90;;;;;;4992921;28;20386;-75
2020/12/05 01:37:01;;;;;;;0.75;0.55;;;3.90;99.90;;;;;;4993817;28;20533;-75
2020/12/05 01:39:26;;;;;;;0.52;0.40;;;4.60;99.90;;;;;;4992692;28;20782;-77
2020/12/05 01:41:52;;;;;;;0.70;0.40;;;5.00;99.90;;;;;;4993824;28;20425;-76
2020/12/05 01:44:18;;;;;;;0.60;0.40;;;3.20;99.90;;;;;;4992205;28;20502;-76
2020/12/05 01:46:44;;;;;;;0.80;0.50;;;3.10;99.90;;;;;;4992880;28;20480;-75
2020/12/05 01:49:15;;;;;;;0.73;0.50;;;3.20;99.90;;;;;;4993211;28;20502;-76
2020/12/05 01:51:41;;;;;;;0.50;0.40;;;4.40;99.90;;;;;;4992938;28;20468;-76
2020/12/05 01:54:08;;;;;;;0.43;0.30;;;4.90;99.90;;;;;;4993218;28;20426;-75
2020/12/05 01:56:34;;;;;;;0.50;0.40;;;3.10;99.90;;;;;;4992677;28;20752;-76
2020/12/05 01:59:00;;;;;;;0.50;0.40;;;4.40;99.90;;;;;;4993675;28;20386;-75
2020/12/05 02:01:27;;;;;;;0.70;0.40;;;3.30;99.90;;;;;;4992692;28;20386;-78
2020/12/05 02:03:58;;;;;;;0.43;0.40;;;3.60;99.90;;;;;;4992665;28;20859;-75
2020/12/05 02:06:46;;;;;;;0.60;0.50;;;3.40;99.90;;;;;;4993343;28;20489;-75
2020/12/05 02:09:16;;;;;;;0.70;0.50;;;3.10;99.90;;;;;;4993140;28;20472;-75
2020/12/05 02:11:49;;;;;;;0.83;0.60;;;2.90;99.90;;;;;;4992480;28;20576;-75
2020/12/05 02:14:19;;;;;;;1.10;1.00;;;3.80;99.90;;;;;;4993168;28;20429;-75
2020/12/05 02:16:46;;;;;;;1.40;1.30;;;3.70;99.90;;;;;;4990933;28;20438;-75
2020/12/05 02:19:16;;;;;;;1.30;1.10;;;2.50;99.90;;;;;;4992551;28;20903;-75
2020/12/05 02:21:45;;;;;;;1.80;1.60;;;4.20;99.90;;;;;;4992331;28;20491;-75
2020/12/05 02:24:13;;;;;;;3.00;2.10;;;5.20;99.90;;;;;;4992874;28;20747;-75
2020/12/05 02:26:39;;;;;;;2.17;1.63;;;4.50;99.90;;;;;;4992111;28;20862;-76
2020/12/05 02:29:04;;;;;;;2.90;2.28;;;3.90;99.90;;;;;;4992746;28;20461;-76
2020/12/05 02:31:30;;;;;;;3.22;2.60;;;3.20;99.90;;;;;;4991753;28;20383;-78
2020/12/05 02:33:56;;;;;;;3.37;2.97;;;4.70;99.90;;;;;;4992690;28;20382;-75
2020/12/05 02:36:22;;;;;;;3.40;3.10;;;2.80;99.90;;;;;;4992686;28;20418;-75
2020/12/05 02:39:06;;;;;;;4.68;3.35;;;2.30;99.90;;;;;;4991539;28;20886;-76
2020/12/05 02:41:39;;;;;;;3.80;2.90;;;3.30;99.90;;;;;;4991930;28;20398;-77
2020/12/05 02:44:05;;;;;;;4.10;3.70;;;2.40;99.90;;;;;;4992511;28;20387;-76
2020/12/05 02:46:31;;;;;;;4.53;4.10;;;2.30;99.90;;;;;;4991603;28;20398;-78
2020/12/05 02:48:57;;;;;;;5.27;4.40;;;2.60;99.90;;;;;;4992101;28;20387;-76
2020/12/05 02:51:23;;;;;;;5.05;4.50;;;;;;;;;;4992457;28;20389;-75
2020/12/05 02:53:49;;;;;;;7.43;4.70;;;2.40;99.90;;;;;;4991557;28;20378;-76
2020/12/05 02:56:19;;;;;;;6.20;4.57;;;2.40;99.90;;;;;;4992407;28;20807;-75
2020/12/05 02:58:45;;;;;;;5.82;3.80;;;2.50;99.90;;;;;;4991505;28;20418;-75
2020/12/05 03:01:12;;;;;;;4.20;3.80;;;2.50;99.90;;;;;;4992272;28;20386;-75
2020/12/05 03:03:38;;;;;;;5.07;3.80;;;3.40;99.90;;;;;;4991370;28;20762;-76
2020/12/05 03:06:04;;;;;;;5.45;3.80;;;3.60;99.90;;;;;;4991973;28;20386;-76
2020/12/05 03:08:29;;;;;;;6.15;4.10;;;2.20;99.90;;;;;;4991735;28;20394;-79
2020/12/05 03:10:55;;;;;;;4.40;3.90;;;;;;;;;;4991447;28;20546;-76
2020/12/05 03:13:21;;;;;;;5.97;5.07;;;2.40;99.90;;;;;;4991812;28;20844;-76
2020/12/05 03:15:46;;;;;;;4.82;4.03;;;4.20;99.90;;;;;;4990536;28;20461;-76
2020/12/05 03:18:12;;;;;;;4.63;3.70;;;3.40;99.90;;;;;;4991532;28;20418;-76
2020/12/05 03:20:38;;;;;;;4.13;3.60;;;4.70;99.90;;;;;;4991027;28;20415;-76
2020/12/05 03:23:03;;;;;;;4.57;4.03;;;4.20;99.90;;;;;;4991924;28;20425;-75
2020/12/05 03:25:29;;;;;;;5.60;4.07;;;2.50;99.90;;;;;;4991247;28;20473;-77
2020/12/05 03:27:55;;;;;;;3.33;3.03;;;2.80;99.90;;;;;;4990933;28;20437;-76
2020/12/05 03:30:20;;;;;;;4.47;3.63;;;4.10;99.90;;;;;;4992955;28;20431;-75
2020/12/05 03:32:47;;;;;;;5.13;3.70;;;3.30;99.90;;;;;;5010567;28;20392;-76
2020/12/05 03:35:12;;;;;;;5.22;4.15;;;4.70;99.90;;;;;;5011076;28;20416;-75
2020/12/05 03:37:38;;;;;;;4.95;4.20;;;4.00;99.90;;;;;;5010449;28;20407;-76
2020/12/05 03:40:05;;;;;;;5.30;3.85;;;3.10;99.90;;;;;;5011105;28;20439;-75
2020/12/05 03:42:31;;;;;;;3.65;3.30;;;4.80;99.90;;;;;;5010912;28;20385;-79
2020/12/05 03:44:56;;;;;;;4.23;3.37;;;5.10;99.90;;;;;;5010767;28;20392;-75
2020/12/05 03:47:22;;;;;;;3.80;3.40;;;3.50;99.90;;;;;;5010974;28;20447;-75
2020/12/05 03:49:48;;;;;;;3.78;3.42;;;4.30;99.90;;;;;;5010161;28;20587;-75
2020/12/05 03:52:15;;;;;;;3.30;3.00;;;3.70;99.90;;;;;;5010970;28;20446;-75
2020/12/05 03:54:43;;;;;;;3.30;3.00;;;2.70;99.90;;;;;;5008753;28;20706;-76
2020/12/05 03:57:09;;;;;;;3.37;3.00;;;5.20;99.90;;;;;;5010985;28;20753;-75
2020/12/05 03:59:35;;;;;;;3.78;2.70;;;2.80;99.90;;;;;;5010071;28;20396;-78
2020/12/05 04:02:01;;;;;;;3.53;2.90;;;4.80;99.90;;;;;;5010796;28;20464;-75
2020/12/05 04:04:26;;;;;;;3.83;3.38;;;4.90;99.90;;;;;;5010834;28;20719;-75
2020/12/05 04:06:52;;;;;;;2.67;2.47;;;4.60;99.90;;;;;;5008861;28;20416;-75
2020/12/05 04:09:18;;;;;;;3.00;2.70;;;3.10;99.90;;;;;;5010426;28;20388;-75
2020/12/05 04:11:43;;;;;;;3.47;2.90;;;4.30;99.90;;;;;;5009599;28;20388;-75
2020/12/05 04:14:10;;;;;;;3.78;3.38;;;4.20;99.90;;;;;;5010514;28;20416;-76
2020/12/05 04:16:37;;;;;;;3.55;3.25;;;5.50;99.90;;;;;;5009784;28;20914;-78
2020/12/05 04:19:03;;;;;;;3.20;2.90;;;5.20;99.90;;;;;;5010404;28;20482;-76
2020/12/05 04:21:29;;;;;;;3.60;3.03;;;4.90;99.90;;;;;;5010501;28;20384;-76
2020/12/05 04:23:55;;;;;;;4.07;3.50;;;3.60;99.90;;;;;;5009810;28;21085;-76
2020/12/05 04:26:21;;;;;;;3.70;3.40;;;4.10;99.90;;;;;;5013125;28;20479;-75
2020/12/05 04:28:48;;;;;;;3.67;3.00;;;4.20;99.90;;;;;;5013576;28;20377;-76
2020/12/05 04:31:13;;;;;;;4.63;4.22;;;4.60;99.90;;;;;;5004662;28;20386;-76
2020/12/05 04:33:39;;;;;;;4.00;3.60;;;4.40;99.90;;;;;;4994097;28;20839;-76
2020/12/05 04:36:05;;;;;;;4.30;3.40;;;3.90;99.90;;;;;;4993523;28;20411;-77
2020/12/05 04:38:30;;;;;;;3.60;3.30;;;5.10;99.90;;;;;;4994487;28;20414;-76
2020/12/05 04:41:00;;;;;;;3.20;2.90;;;2.80;99.90;;;;;;4992825;28;20383;-76
2020/12/05 04:43:26;;;;;;;3.90;2.85;;;3.00;99.90;;;;;;4994540;28;20859;-76
2020/12/05 04:45:53;;;;;;;2.53;2.33;;;3.40;99.90;;;;;;4993893;28;20468;-76
2020/12/05 04:48:20;;;;;;;3.00;2.60;;;3.00;99.90;;;;;;4994321;28;20406;-76
2020/12/05 04:50:47;;;;;;;2.63;2.30;;;5.30;99.90;;;;;;4993721;28;20398;-76
2020/12/05 04:53:22;;;;;;;2.92;2.63;;;2.90;99.90;;;;;;4994605;28;20902;-76
2020/12/05 04:55:48;;;;;;;3.05;2.75;;;2.90;99.90;;;;;;4993630;28;20410;-76
2020/12/05 04:58:21;;;;;;;3.30;2.88;;;4.00;99.90;;;;;;4994603;28;20397;-76
2020/12/05 05:00:54;;;;;;;3.10;2.80;;;3.10;99.90;;;;;;4976233;28;20859;-76
2020/12/05 05:03:22;;;;;;;2.40;2.20;;;3.00;99.90;;;;;;4994931;28;20394;-77
2020/12/05 05:05:51;;;;;;;3.10;2.80;;;5.00;99.90;;;;;;4993939;28;20390;-76
2020/12/05 05:08:16;;;;;;;3.40;2.40;;;5.70;99.90;;;;;;4994484;28;20910;-75
2020/12/05 05:10:43;;;;;;;3.30;2.70;;;4.60;99.90;;;;;;4993641;28;20472;-76
2020/12/05 05:13:19;;;;;;;3.10;2.60;;;3.00;99.90;;;;;;4994671;28;20398;-78
2020/12/05 05:15:44;;;;;;;2.58;2.22;;;3.00;99.90;;;;;;4993782;28;20417;-76
2020/12/05 05:18:11;;;;;;;2.90;2.60;;;4.70;99.90;;;;;;4994249;28;20419;-77
2020/12/05 05:20:42;;;;;;;2.92;2.38;;;4.80;99.90;;;;;;4994307;28;20418;-78
2020/12/05 05:23:16;;;;;;;3.10;2.80;;;3.00;99.90;;;;;;4994735;28;20383;-76
2020/12/05 05:26:06;;;;;;;2.80;2.60;;;2.90;99.90;;;;;;4993722;28;20398;-77
2020/12/05 05:28:38;;;;;;;2.30;2.03;;;2.90;99.90;;;;;;4994812;28;20755;-76
2020/12/05 05:31:14;;;;;;;2.60;2.40;;;3.00;99.90;;;;;;5002458;28;20475;-76
2020/12/05 05:33:42;;;;;;;2.33;2.13;;;4.20;99.90;;;;;;5013487;28;20392;-80
2020/12/05 05:36:24;;;;;;;3.30;2.10;;;3.50;99.90;;;;;;5013479;28;20930;-76
2020/12/05 05:39:04;;;;;;;1.80;1.70;;;2.80;99.90;;;;;;5012483;28;20416;-76
2020/12/05 05:41:30;;;;;;;1.90;1.70;;;3.10;99.90;;;;;;5013820;28;20419;-75
2020/12/05 05:44:05;;;;;;;2.65;1.80;;;3.60;99.90;;;;;;5012954;28;20476;-77
2020/12/05 05:46:33;;;;;;;1.60;1.50;;;3.10;99.90;;;;;;5013750;28;20388;-77
2020/12/05 05:49:00;;;;;;;2.88;1.80;;;5.40;99.90;;;;;;5012854;28;20500;-78
2020/12/05 05:51:38;;;;;;;1.30;1.20;;;4.00;99.90;;;;;;5013326;28;20388;-75
2020/12/05 05:54:11;;;;;;;2.05;1.27;;;5.70;99.90;;;;;;5013043;28;20392;-77
2020/12/05 05:56:36;;;;;;;1.90;1.50;;;4.50;99.90;;;;;;5011949;28;20523;-76
2020/12/05 05:59:06;;;;;;;2.60;1.65;;;3.20;99.90;;;;;;5012693;28;20424;-77
2020/12/05 06:01:36;;;;;;;2.13;1.80;;;4.60;99.90;;;;;;5013286;28;20463;-77
2020/12/05 06:04:03;;;;;;;1.60;1.30;;;5.40;99.90;;;;;;5012284;28;21076;-76
2020/12/05 06:06:33;;;;;;;1.70;1.50;;;4.90;99.90;;;;;;5013226;28;20393;-76
2020/12/05 06:09:03;;;;;;;1.80;1.70;;;5.40;99.90;;;;;;5012479;28;20470;-77
2020/12/05 06:11:33;;;;;;;2.00;1.80;;;4.60;99.90;;;;;;5013234;28;20385;-77
2020/12/05 06:14:05;;;;;;;1.80;1.70;;;4.30;99.90;;;;;;5011202;28;20481;-77
2020/12/05 06:16:31;;;;;;;1.50;1.40;;;3.00;99.90;;;;;;5013003;28;20435;-77
2020/12/05 06:18:58;;;;;;;1.60;1.45;;;3.80;99.90;;;;;;5012219;28;20409;-77
2020/12/05 06:21:31;;;;;;;2.30;1.90;;;4.40;99.90;;;;;;5013031;28;20400;-77
2020/12/05 06:24:05;;;;;;;1.70;1.60;;;3.20;99.90;;;;;;5012241;28;20468;-76
2020/12/05 06:26:35;;;;;;;1.85;1.40;;;2.90;99.90;;;;;;5011692;28;20400;-77
2020/12/05 06:29:02;;;;;;;2.80;1.40;;;2.70;99.90;;;;;;5011924;28;20404;-76
2020/12/05 06:31:47;;;;;;;1.30;1.20;;;4.40;99.90;;;;;;5000950;28;20417;-77
2020/12/05 06:34:36;;;;;;;1.55;1.45;;;3.80;99.90;;;;;;4992032;28;20435;-77
2020/12/05 06:37:02;;;;;;;1.50;1.40;;;3.90;99.90;;;;;;4992078;28;20433;-77
2020/12/05 06:39:28;;;;;;;1.60;1.50;;;2.60;99.90;;;;;;4993150;28;20375;-77
2020/12/05 06:41:54;;;;;;;1.70;1.60;;;2.80;99.90;;;;;;4990930;28;20450;-77
2020/12/05 06:44:33;;;;;;;1.93;1.83;;;5.20;99.90;;;;;;4993070;28;20415;-77
2020/12/05 06:47:01;;;;;;;2.85;1.40;;;2.30;99.90;;;;;;4991956;28;20401;-77
2020/12/05 06:49:35;;;;;;;2.60;1.70;;;4.20;99.90;;;;;;4991654;28;20406;-76
2020/12/05 06:52:26;;;;;;;1.75;1.65;;;2.30;99.90;;;;;;4991999;28;20389;-77
2020/12/05 06:54:56;;;;;;;1.60;1.50;;;2.20;99.90;;;;;;4991686;28;20871;-77
2020/12/05 06:57:25;;;;;;;3.28;2.00;;;2.40;99.90;;;;;;4992686;28;20382;-76
2020/12/05 06:59:51;;;;;;;2.08;1.88;;;4.30;99.90;;;;;;4998346;28;20471;-77
2020/12/05 07:02:30;;;;;;;2.58;1.98;;;3.10;99.90;;;;;;5008878;28;20393;-77
2020/12/05 07:05:16;;;;;;;2.50;2.30;;;2.20;99.90;;;;;;5010385;28;20880;-77
2020/12/05 07:07:56;;;;;;;1.95;1.85;;;2.00;99.90;;;;;;5009377;28;20393;-79
2020/12/05 07:10:42;;;;;;;3.28;2.00;;;2.00;99.90;;;;;;5009574;28;20442;-77
2020/12/05 07:13:20;;;;;;;2.20;2.00;;;2.00;99.90;;;;;;5009498;28;20484;-77
2020/12/05 07:15:46;;;;;;;2.70;1.80;;;1.80;99.90;;;;;;5007980;28;20503;-80
2020/12/05 07:18:28;;;;;;;2.22;1.90;;;2.00;99.90;;;;;;5006347;28;20401;-77
2020/12/05 07:20:55;;;;;;;1.83;1.70;;;0.80;99.90;;;;;;5000147;28;20475;-77
2020/12/05 07:23:21;;;;;;;1.80;1.70;;;2.60;99.90;;;;;;5001168;28;20388;-77
2020/12/05 07:25:46;;;;;;;2.20;2.00;;;2.50;99.90;;;;;;5001943;28;20381;-79
2020/12/05 07:28:12;;;;;;;2.00;1.70;;;2.10;99.90;;;;;;5000527;28;20394;-76
2020/12/05 07:30:38;;;;;;;2.10;1.90;;;4.00;99.90;;;;;;5000480;28;20482;-75
2020/12/05 07:33:07;;;;;;;1.70;1.60;;;4.70;99.90;;;;;;4999625;28;20843;-75
2020/12/05 07:35:32;;;;;;;1.70;1.60;;;2.30;99.90;;;;;;5001700;28;20543;-75
2020/12/05 07:37:59;;;;;;;2.20;2.00;;;3.90;99.90;;;;;;5000330;28;20770;-76
2020/12/05 07:40:27;;;;;;;2.00;1.80;;;4.30;99.90;;;;;;5000318;28;20429;-75
2020/12/05 07:42:53;;;;;;;1.90;1.70;;;2.40;99.90;;;;;;5000811;28;20435;-76
2020/12/05 07:45:19;;;;;;;2.20;2.00;;;3.70;99.90;;;;;;5001844;28;20394;-75
2020/12/05 07:47:48;;;;;;;1.88;1.77;;;2.20;99.90;;;;;;5001191;28;20401;-79
2020/12/05 07:50:14;;;;;;;1.83;1.70;;;;;;;;;;5000952;28;20405;-77
2020/12/05 07:52:41;;;;;;;1.87;1.77;;;1.90;99.90;;;;;;5000636;28;20469;-75
2020/12/05 07:55:09;;;;;;;2.20;1.60;;;2.00;99.90;;;;;;5001809;28;20414;-76
2020/12/05 07:57:36;;;;;;;1.80;1.70;;;4.00;99.90;;;;;;5001295;28;20389;-76
2020/12/05 08:00:14;;;;;;;1.55;1.40;;;2.30;99.90;;;;;;4999436;28;20905;-75
2020/12/05 08:02:46;;;;;;;1.50;1.40;;;4.20;99.90;;;;;;5011180;28;20392;-76
2020/12/05 08:05:35;;;;;;;1.90;1.50;;;2.50;99.90;;;;;;5009057;28;20421;-75
2020/12/05 08:08:03;;;;;;;3.80;2.10;;;3.20;99.90;;;;;;5000806;28;20395;-76
2020/12/05 08:10:31;;;;;;;1.98;1.40;;;3.40;99.90;;;;;;5002933;28;20423;-75
2020/12/05 08:13:18;;;;;;;1.75;1.65;;;3.40;99.90;;;;;;4998148;28;20772;-76
2020/12/05 08:15:50;;;;;;;1.95;1.60;;;2.50;99.90;;;;;;5001149;28;20469;-76
2020/12/05 08:18:18;;;;;;;1.70;1.50;;;3.40;99.90;;;;;;5000817;28;20462;-76
2020/12/05 08:20:46;;;;;;;1.60;1.50;;;4.30;99.90;;;;;;5001409;28;20391;-77
2020/12/05 08:23:41;;;;;;;1.85;1.55;;;2.50;99.90;;;;;;5001770;28;20884;-77
2020/12/05 08:26:09;;;;;;;1.70;1.60;;;3.20;99.90;;;;;;4989938;28;20511;-77
2020/12/05 08:28:40;;;;;;;2.08;1.70;;;2.90;99.90;;;;;;4999289;28;20388;-77
2020/12/05 08:31:08;;;;;;;2.13;1.73;;;2.80;99.90;;;;;;4998726;28;20407;-76
2020/12/05 08:33:48;;;;;;;1.70;1.60;;;2.60;99.90;;;;;;4996921;28;20385;-77
2020/12/05 08:36:34;;;;;;;1.80;1.70;;;3.60;99.90;;;;;;4997567;28;20414;-76
2020/12/05 08:39:13;;;;;;;2.07;1.90;;;2.80;99.90;;;;;;5000965;28;20524;-76
2020/12/05 08:41:47;;;;;;;2.20;1.80;;;2.90;99.90;;;;;;4999897;28;20797;-76
2020/12/05 08:44:18;;;;;;;1.55;1.45;;;3.80;99.90;;;;;;4999643;28;20388;-76
2020/12/05 08:46:44;;;;;;;1.70;1.60;;;3.50;99.90;;;;;;4996788;28;20402;-76
2020/12/05 08:49:18;;;;;;;2.20;2.00;;;2.80;99.90;;;;;;4999360;28;20389;-76
2020/12/05 08:51:50;;;;;;;2.40;2.20;;;3.10;99.90;;;;;;4999970;28;20483;-77
2020/12/05 08:54:16;;;;;;;2.15;1.90;;;3.30;99.90;;;;;;5002741;28;20444;-76
2020/12/05 08:56:43;;;;;;;2.30;2.00;;;4.40;99.90;;;;;;5002100;28;20422;-77
2020/12/05 08:59:09;;;;;;;2.10;1.80;;;;;;;;;;4995892;28;21239;-76
2020/12/05 09:01:43;;;;;;;1.63;1.50;;;3.00;99.90;;;;;;5000651;28;20385;-77
2020/12/05 09:04:12;;;;;;;2.13;1.93;;;5.90;99.90;;;;;;4997987;28;20408;-77
2020/12/05 09:06:39;;;;;;;1.83;1.73;;;4.00;99.90;;;;;;5001576;28;20455;-77
2020/12/05 09:09:05;;;;;;;1.83;1.55;;;5.70;99.90;;;;;;4992300;28;20839;-77
2020/12/05 09:11:31;;;;;;;2.05;1.30;;;3.40;99.90;;;;;;5005069;28;20909;-77
2020/12/05 09:13:57;;;;;;;1.30;1.20;;;3.70;99.90;;;;;;5011427;28;20400;-77
2020/12/05 09:16:32;;;;;;;2.30;2.10;;;3.40;99.90;;;;;;5013940;28;20458;-77
2020/12/05 09:18:58;;;;;;;2.70;2.30;;;5.20;99.90;;;;;;5013435;28;20413;-77
2020/12/05 09:21:24;;;;;;;2.17;1.90;;;3.40;99.90;;;;;;5014199;28;20399;-77
2020/12/05 09:24:03;;;;;;;2.80;2.00;;;4.20;99.90;;;;;;5013804;28;20487;-77
2020/12/05 09:26:29;;;;;;;2.10;1.90;;;3.40;99.90;;;;;;5003800;28;20447;-77
2020/12/05 09:28:56;;;;;;;2.20;1.98;;;4.80;99.90;;;;;;5003865;28;20710;-77
2020/12/05 09:31:21;;;;;;;3.70;2.10;;;3.50;99.90;;;;;;5006487;28;20393;-77
2020/12/05 09:33:47;;;;;;;2.63;2.13;;;5.10;99.90;;;;;;5002753;28;20437;-77
2020/12/05 09:36:13;;;;;;;1.83;1.60;;;4.90;99.90;;;;;;5004098;28;20404;-77
2020/12/05 09:38:39;;;;;;;1.60;1.50;;;3.70;99.90;;;;;;4998209;28;20382;-77
2020/12/05 09:41:04;;;;;;;2.67;1.75;;;4.10;99.90;;;;;;4993199;28;20383;-77
2020/12/05 09:43:30;;;;;;;1.87;1.70;;;5.70;99.90;;;;;;4994097;28;20389;-77
2020/12/05 09:45:56;;;;;;;2.20;2.00;;;4.70;99.90;;;;;;4998954;28;20390;-79
2020/12/05 09:48:21;;;;;;;2.40;2.20;;;3.90;99.90;;;;;;4996820;28;20461;-76
2020/12/05 09:50:47;;;;;;;2.53;2.33;;;3.70;99.90;;;;;;4998477;28;20865;-77
2020/12/05 09:53:13;;;;;;;2.97;2.40;;;4.20;99.90;;;;;;5003545;28;20561;-76
2020/12/05 09:55:39;;;;;;;3.33;2.83;;;4.20;99.90;;;;;;4992598;28;20512;-76
2020/12/05 09:58:05;;;;;;;4.50;2.40;;;5.60;99.90;;;;;;4993138;28;20393;-77
2020/12/05 10:00:31;;;;;;;2.90;2.40;;;4.70;99.90;;;;;;4996274;28;20385;-76
2020/12/05 10:02:57;;;;;;;2.33;2.13;;;4.40;99.90;;;;;;4999538;28;20822;-79
2020/12/05 10:05:22;;;;;;;2.55;2.20;;;4.10;99.90;;;;;;5004075;28;20484;-76
2020/12/05 10:07:48;;;;;;;2.85;2.30;;;6.30;99.90;;;;;;5011187;28;20885;-76
2020/12/05 10:10:14;;;;;;;4.00;2.00;;;4.10;99.90;;;;;;5012429;28;20460;-76
2020/12/05 10:12:46;;;;;;;2.47;2.15;;;4.10;99.90;;;;;;5013033;28;20798;-77
2020/12/05 10:15:13;;;;;;;2.10;1.90;;;4.20;99.90;;;;;;5012233;28;20452;-77
2020/12/05 10:17:43;;;;;;;2.63;1.90;;;5.30;99.90;;;;;;5013061;28;20900;-76
2020/12/05 10:20:09;;;;;;;3.40;2.30;;;5.20;99.90;;;;;;5012101;28;20388;-76
2020/12/05 10:22:35;;;;;;;2.00;1.80;;;6.20;99.90;;;;;;5013130;28;20385;-75
2020/12/05 10:25:01;;;;;;;3.08;1.90;;;5.70;99.90;;;;;;5011826;28;20511;-76
2020/12/05 10:27:27;;;;;;;2.63;1.80;;;6.20;99.90;;;;;;5012206;28;20480;-76
2020/12/05 10:29:52;;;;;;;2.70;1.50;;;4.90;99.90;;;;;;5012038;28;20483;-76
2020/12/05 10:32:18;;;;;;;1.97;1.57;;;6.10;99.90;;;;;;5009348;28;20400;-76
2020/12/05 10:34:44;;;;;;;1.90;1.40;;;7.20;99.90;;;;;;5012216;28;20389;-76
2020/12/05 10:37:10;;;;;;;2.75;1.80;;;4.40;99.90;;;;;;5011260;28;20877;-76
2020/12/05 10:39:35;;;;;;;1.90;1.80;;;5.00;99.90;;;;;;5012139;28;20427;-76
2020/12/05 10:42:01;;;;;;;2.35;1.80;;;6.00;99.90;;;;;;5010973;28;20373;-76
2020/12/05 10:44:27;;;;;;;3.00;2.08;;;4.90;99.90;;;;;;5007738;28;20392;-76
2020/12/05 10:46:52;;;;;;;2.70;1.60;;;5.50;99.90;;;;;;5011454;28;20472;-76
2020/12/05 10:49:19;;;;;;;2.10;1.90;;;4.60;99.90;;;;;;5007117;28;20841;-76
2020/12/05 10:51:47;;;;;;;2.00;1.80;;;5.20;99.90;;;;;;5006816;28;20400;-76
2020/12/05 10:54:13;;;;;;;2.53;2.05;;;6.00;99.90;;;;;;5010819;28;20386;-76
2020/12/05 10:56:40;;;;;;;2.30;2.10;;;4.80;99.90;;;;;;5011608;28;20496;-76
2020/12/05 10:59:07;;;;;;;3.33;2.65;;;6.80;99.90;;;;;;5010928;28;20397;-77
2020/12/05 11:01:33;;;;;;;2.60;2.40;;;4.80;99.90;;;;;;5009961;28;20381;-77
2020/12/05 11:03:58;;;;;;;2.72;2.00;;;6.10;99.90;;;;;;5011249;28;20471;-79
2020/12/05 11:06:25;;;;;;;2.80;2.50;;;5.70;99.90;;;;;;5010071;28;20818;-76
2020/12/05 11:08:51;;;;;;;4.05;2.30;;;7.80;99.90;;;;;;5011410;28;20396;-77
2020/12/05 11:11:17;;;;;;;3.28;2.50;;;6.40;99.90;;;;;;5010706;28;20476;-76
2020/12/05 11:13:43;;;;;;;2.30;2.10;;;6.20;99.90;;;;;;5010567;28;20412;-76
2020/12/05 11:16:09;;;;;;;2.60;2.15;;;7.00;99.90;;;;;;5010711;28;20423;-76
2020/12/05 11:18:35;;;;;;;2.50;2.30;;;5.20;99.90;;;;;;5011500;28;20408;-76
2020/12/05 11:21:00;;;;;;;2.35;2.13;;;5.40;99.90;;;;;;5011002;28;20412;-79
2020/12/05 11:23:26;;;;;;;2.57;1.93;;;6.60;99.90;;;;;;5012157;28;20377;-76
2020/12/05 11:25:52;;;;;;;2.27;2.07;;;6.90;99.90;;;;;;5011757;28;20446;-76
2020/12/05 11:28:17;;;;;;;2.35;2.00;;;4.70;99.90;;;;;;5010972;28;20392;-76
2020/12/05 11:30:43;;;;;;;1.95;1.67;;;7.20;99.90;;;;;;5011585;28;20385;-78
2020/12/05 11:33:09;;;;;;;1.60;1.50;;;6.60;99.90;;;;;;5010689;28;20396;-79
2020/12/05 11:35:36;;;;;;;2.08;1.95;;;;;;;;;;5011169;28;20503;-76
2020/12/05 11:38:01;;;;;;;3.63;2.10;;;5.50;99.90;;;;;;5009696;28;20857;-79
2020/12/05 11:40:27;;;;;;;2.58;1.80;;;5.40;99.90;;;;;;5011420;28;20431;-77
2020/12/05 11:42:53;;;;;;;2.40;1.90;;;5.10;99.90;;;;;;5011630;28;20737;-76
2020/12/05 11:45:18;;;;;;;2.30;2.10;;;7.20;99.90;;;;;;5010636;28;20389;-76
2020/12/05 11:47:44;;;;;;;2.40;2.20;;;5.50;99.90;;;;;;5011143;28;20404;-76
2020/12/05 11:50:09;;;;;;;3.30;2.30;;;5.20;99.90;;;;;;5010397;28;20392;-78
2020/12/05 11:52:35;;;;;;;2.03;1.93;;;7.50;99.90;;;;;;5011440;28;20381;-78
2020/12/05 11:55:00;;;;;;;2.50;2.20;;;6.50;99.90;;;;;;5010770;28;20388;-80
2020/12/05 11:57:26;;;;;;;2.40;1.80;;;7.20;99.90;;;;;;5010859;28;20384;-78
2020/12/05 11:59:52;;;;;;;3.30;2.20;;;6.50;99.90;;;;;;5010990;28;20419;-78
2020/12/05 12:02:17;;;;;;;3.37;2.57;;;5.50;99.90;;;;;;5010228;28;20851;-77
2020/12/05 12:04:43;;;;;;;2.73;2.33;;;5.90;99.90;;;;;;5010894;28;20384;-77
2020/12/05 12:07:09;;;;;;;2.50;2.23;;;7.20;99.90;;;;;;5010469;28;20517;-77
2020/12/05 12:09:34;;;;;;;2.40;2.20;;;5.60;99.90;;;;;;5009229;28;20751;-78
2020/12/05 12:12:03;;;;;;;2.47;2.10;;;6.90;99.90;;;;;;4997023;28;20394;-79
2020/12/05 12:14:29;;;;;;;2.38;2.10;;;6.40;99.90;;;;;;4996745;28;20390;-73
2020/12/05 12:16:55;;;;;;;2.60;2.10;;;;;;;;;;5008219;28;20865;-72
2020/12/05 12:19:21;;;;;;;2.63;2.00;;;6.10;99.90;;;;;;4996914;28;20488;-72
2020/12/05 12:21:47;;;;;;;2.40;2.20;;;6.60;99.90;;;;;;5004327;28;20381;-73
2020/12/05 12:24:13;;;;;;;3.00;2.53;;;6.30;99.90;;;;;;4996885;28;20386;-72
2020/12/05 12:26:38;;;;;;;3.33;2.60;;;6.40;99.90;;;;;;4991507;28;20474;-72
2020/12/05 12:29:04;;;;;;;2.60;2.37;;;6.40;99.90;;;;;;4990618;28;20385;-80
2020/12/05 12:31:30;;;;;;;3.50;2.60;;;6.50;99.90;;;;;;5002495;28;20392;-71
2020/12/05 12:33:55;;;;;;;2.50;2.30;;;6.00;99.90;;;;;;5011447;28;20377;-71
2020/12/05 12:36:21;;;;;;;2.67;2.30;;;6.60;99.90;;;;;;4997310;28;20428;-71
2020/12/05 12:38:48;;;;;;;2.72;2.30;;;7.70;99.90;;;;;;4996177;28;20807;-71
2020/12/05 12:41:18;;;;;;;3.00;2.70;;;7.40;99.90;;;;;;4992055;28;20461;-73
2020/12/05 12:43:45;;;;;;;3.10;2.50;;;6.40;99.90;;;;;;5003360;28;20435;-72
2020/12/05 12:46:12;;;;;;;4.07;2.67;;;6.00;99.90;;;;;;4994792;28;20899;-73
2020/12/05 12:48:39;;;;;;;3.17;2.63;;;6.20;99.90;;;;;;4998677;28;20467;-72
2020/12/05 12:51:07;;;;;;;2.60;2.40;;;5.60;99.90;;;;;;5009623;28;20399;-79
2020/12/05 12:53:33;;;;;;;4.30;2.40;;;6.60;99.90;;;;;;5011368;28;20537;-73
2020/12/05 12:56:00;;;;;;;3.05;2.20;;;5.70;99.90;;;;;;4995074;28;20489;-73
2020/12/05 13:01:01;;;;;;;2.60;2.40;;;5.90;99.90;;;;;;5001070;28;20428;-73
2020/12/05 13:03:28;;;;;;;2.63;2.42;;;5.80;99.90;;;;;;5001011;28;20382;-72
2020/12/05 13:05:53;;;;;;;2.40;2.03;;;5.70;99.90;;;;;;5003322;28;20757;-72
2020/12/05 13:08:19;;;;;;;3.13;2.78;;;;;;;;;;5005495;28;20909;-73